sensor_id;sensor_type;location;lat;lon;timestamp;pressure;altitude;pressure_sealevel;temperature;humidity
44441;BME280;30146;52.268;20.944;2023-02-28T00:01:13;101856.70;;;-0.64;50.42
44441;BME280;30146;52.268;20.944;2023-02-28T00:03:41;101855.33;;;-0.65;50.28
44441;BME280;30146;52.268;20.944;2023-02-28T00:06:10;101857.67;;;-0.65;50.38
44441;BME280;30146;52.268;20.944;2023-02-28T00:08:38;101855.22;;;-0.67;50.53
44441;BME280;30146;52.268;20.944;2023-02-28T00:11:08;101854.91;;;-0.66;50.52
44441;BME280;30146;52.268;20.944;2023-02-28T00:13:39;101858.55;;;-0.68;50.27
44441;BME280;30146;52.268;20.944;2023-02-28T00:16:09;101860.12;;;-0.69;50.35
44441;BME280;30146;52.268;20.944;2023-02-28T00:18:37;101861.79;;;-0.72;50.42
44441;BME280;30146;52.268;20.944;2023-02-28T00:21:06;101863.55;;;-0.73;50.64
44441;BME280;30146;52.268;20.944;2023-02-28T00:23:35;101863.81;;;-0.75;50.59
44441;BME280;30146;52.268;20.944;2023-02-28T00:26:04;101865.30;;;-0.75;50.70
44441;BME280;30146;52.268;20.944;2023-02-28T00:28:32;101868.91;;;-0.77;50.93
44441;BME280;30146;52.268;20.944;2023-02-28T00:31:00;101871.65;;;-0.79;51.11
44441;BME280;30146;52.268;20.944;2023-02-28T00:33:29;101875.09;;;-0.80;50.92
44441;BME280;30146;52.268;20.944;2023-02-28T00:36:07;101874.86;;;-0.81;51.21
44441;BME280;30146;52.268;20.944;2023-02-28T00:38:36;101875.30;;;-0.82;51.48
44441;BME280;30146;52.268;20.944;2023-02-28T00:41:05;101875.16;;;-0.84;51.54
44441;BME280;30146;52.268;20.944;2023-02-28T00:43:35;101869.42;;;-0.88;51.43
44441;BME280;30146;52.268;20.944;2023-02-28T00:46:05;101868.31;;;-0.92;51.33
44441;BME280;30146;52.268;20.944;2023-02-28T00:48:34;101873.30;;;-0.95;51.49
44441;BME280;30146;52.268;20.944;2023-02-28T00:51:02;101873.60;;;-0.96;51.90
44441;BME280;30146;52.268;20.944;2023-02-28T00:53:32;101867.95;;;-0.98;51.76
44441;BME280;30146;52.268;20.944;2023-02-28T00:56:00;101868.14;;;-1.00;51.92
44441;BME280;30146;52.268;20.944;2023-02-28T00:58:28;101867.30;;;-1.03;52.00
44441;BME280;30146;52.268;20.944;2023-02-28T01:00:56;101868.98;;;-1.05;51.99
44441;BME280;30146;52.268;20.944;2023-02-28T01:03:24;101868.44;;;-1.09;52.14
44441;BME280;30146;52.268;20.944;2023-02-28T01:05:52;101867.03;;;-1.10;52.25
44441;BME280;30146;52.268;20.944;2023-02-28T01:08:20;101868.52;;;-1.10;52.29
44441;BME280;30146;52.268;20.944;2023-02-28T01:10:49;101865.40;;;-1.12;52.36
44441;BME280;30146;52.268;20.944;2023-02-28T01:13:17;101868.44;;;-1.14;52.43
44441;BME280;30146;52.268;20.944;2023-02-28T01:15:48;101866.45;;;-1.17;52.40
44441;BME280;30146;52.268;20.944;2023-02-28T01:18:17;101868.35;;;-1.19;52.58
44441;BME280;30146;52.268;20.944;2023-02-28T01:20:45;101867.31;;;-1.19;52.56
44441;BME280;30146;52.268;20.944;2023-02-28T01:23:13;101865.34;;;-1.18;52.57
44441;BME280;30146;52.268;20.944;2023-02-28T01:25:41;101865.48;;;-1.19;52.81
44441;BME280;30146;52.268;20.944;2023-02-28T01:28:09;101865.98;;;-1.22;52.64
44441;BME280;30146;52.268;20.944;2023-02-28T01:30:37;101866.96;;;-1.24;52.81
44441;BME280;30146;52.268;20.944;2023-02-28T01:33:07;101867.63;;;-1.27;52.74
44441;BME280;30146;52.268;20.944;2023-02-28T01:35:35;101874.73;;;-1.29;52.59
44441;BME280;30146;52.268;20.944;2023-02-28T01:38:03;101873.59;;;-1.28;52.92
44441;BME280;30146;52.268;20.944;2023-02-28T01:40:48;101873.30;;;-1.27;52.88
44441;BME280;30146;52.268;20.944;2023-02-28T01:43:23;101874.09;;;-1.28;53.14
44441;BME280;30146;52.268;20.944;2023-02-28T01:45:52;101876.29;;;-1.31;53.32
44441;BME280;30146;52.268;20.944;2023-02-28T01:48:25;101874.52;;;-1.32;53.17
44441;BME280;30146;52.268;20.944;2023-02-28T01:50:55;101875.92;;;-1.34;53.35
44441;BME280;30146;52.268;20.944;2023-02-28T01:53:31;101878.73;;;-1.37;53.23
44441;BME280;30146;52.268;20.944;2023-02-28T01:56:00;101877.09;;;-1.39;53.18
44441;BME280;30146;52.268;20.944;2023-02-28T01:58:31;101878.14;;;-1.42;53.48
44441;BME280;30146;52.268;20.944;2023-02-28T02:01:00;101881.60;;;-1.42;53.56
44441;BME280;30146;52.268;20.944;2023-02-28T02:03:30;101882.35;;;-1.44;53.49
44441;BME280;30146;52.268;20.944;2023-02-28T02:05:59;101876.80;;;-1.44;53.56
44441;BME280;30146;52.268;20.944;2023-02-28T02:08:29;101873.16;;;-1.46;53.74
44441;BME280;30146;52.268;20.944;2023-02-28T02:10:59;101873.35;;;-1.48;53.87
44441;BME280;30146;52.268;20.944;2023-02-28T02:13:37;101876.45;;;-1.49;53.83
44441;BME280;30146;52.268;20.944;2023-02-28T02:16:23;101878.06;;;-1.50;53.79
44441;BME280;30146;52.268;20.944;2023-02-28T02:18:59;101877.20;;;-1.51;54.13
44441;BME280;30146;52.268;20.944;2023-02-28T02:21:56;101875.18;;;-1.51;53.96
44441;BME280;30146;52.268;20.944;2023-02-28T02:24:55;101877.77;;;-1.53;53.79
44441;BME280;30146;52.268;20.944;2023-02-28T02:27:38;101877.49;;;-1.54;54.06
44441;BME280;30146;52.268;20.944;2023-02-28T02:30:28;101880.05;;;-1.56;54.09
44441;BME280;30146;52.268;20.944;2023-02-28T02:33:09;101876.04;;;-1.56;54.47
44441;BME280;30146;52.268;20.944;2023-02-28T02:35:49;101876.67;;;-1.57;54.26
44441;BME280;30146;52.268;20.944;2023-02-28T02:38:22;101875.77;;;-1.58;54.46
44441;BME280;30146;52.268;20.944;2023-02-28T02:40:58;101877.98;;;-1.57;54.52
44441;BME280;30146;52.268;20.944;2023-02-28T02:43:36;101882.11;;;-1.56;54.36
44441;BME280;30146;52.268;20.944;2023-02-28T02:46:12;101885.05;;;-1.54;54.54
44441;BME280;30146;52.268;20.944;2023-02-28T02:48:46;101882.05;;;-1.53;54.52
44441;BME280;30146;52.268;20.944;2023-02-28T02:51:17;101884.96;;;-1.53;54.53
44441;BME280;30146;52.268;20.944;2023-02-28T02:53:48;101886.08;;;-1.54;54.73
44441;BME280;30146;52.268;20.944;2023-02-28T02:56:20;101888.45;;;-1.56;54.56
44441;BME280;30146;52.268;20.944;2023-02-28T02:58:51;101889.18;;;-1.58;54.67
44441;BME280;30146;52.268;20.944;2023-02-28T03:01:23;101889.42;;;-1.59;54.73
44441;BME280;30146;52.268;20.944;2023-02-28T03:03:58;101892.33;;;-1.61;54.79
44441;BME280;30146;52.268;20.944;2023-02-28T03:06:27;101895.04;;;-1.63;54.87
44441;BME280;30146;52.268;20.944;2023-02-28T03:08:55;101892.81;;;-1.66;54.76
44441;BME280;30146;52.268;20.944;2023-02-28T03:11:23;101890.35;;;-1.68;54.89
44441;BME280;30146;52.268;20.944;2023-02-28T03:14:09;101895.13;;;-1.69;54.84
44441;BME280;30146;52.268;20.944;2023-02-28T03:17:03;101897.63;;;-1.69;55.18
44441;BME280;30146;52.268;20.944;2023-02-28T03:19:47;101894.86;;;-1.70;55.23
44441;BME280;30146;52.268;20.944;2023-02-28T03:22:33;101894.33;;;-1.71;55.05
44441;BME280;30146;52.268;20.944;2023-02-28T03:25:11;101894.09;;;-1.72;55.36
44441;BME280;30146;52.268;20.944;2023-02-28T03:27:52;101894.15;;;-1.74;55.21
44441;BME280;30146;52.268;20.944;2023-02-28T03:30:26;101894.09;;;-1.75;55.74
44441;BME280;30146;52.268;20.944;2023-02-28T03:32:59;101897.08;;;-1.76;55.56
44441;BME280;30146;52.268;20.944;2023-02-28T03:35:35;101894.59;;;-1.75;55.75
44441;BME280;30146;52.268;20.944;2023-02-28T03:38:10;101900.18;;;-1.77;55.68
44441;BME280;30146;52.268;20.944;2023-02-28T03:40:44;101900.92;;;-1.81;55.70
44441;BME280;30146;52.268;20.944;2023-02-28T03:43:19;101897.57;;;-1.83;55.69
44441;BME280;30146;52.268;20.944;2023-02-28T03:45:50;101899.45;;;-1.82;55.90
44441;BME280;30146;52.268;20.944;2023-02-28T03:48:23;101902.73;;;-1.81;55.77
44441;BME280;30146;52.268;20.944;2023-02-28T03:50:55;101902.89;;;-1.82;55.79
44441;BME280;30146;52.268;20.944;2023-02-28T03:53:29;101903.71;;;-1.82;55.86
44441;BME280;30146;52.268;20.944;2023-02-28T03:56:01;101903.38;;;-1.82;56.16
44441;BME280;30146;52.268;20.944;2023-02-28T03:58:35;101906.54;;;-1.85;55.81
44441;BME280;30146;52.268;20.944;2023-02-28T04:01:11;101907.42;;;-1.86;55.82
44441;BME280;30146;52.268;20.944;2023-02-28T04:03:39;101909.08;;;-1.89;56.05
44441;BME280;30146;52.268;20.944;2023-02-28T04:06:14;101905.17;;;-1.90;56.07
44441;BME280;30146;52.268;20.944;2023-02-28T04:08:44;101905.66;;;-1.90;56.26
44441;BME280;30146;52.268;20.944;2023-02-28T04:11:20;101907.78;;;-1.91;56.62
44441;BME280;30146;52.268;20.944;2023-02-28T04:13:48;101910.05;;;-1.93;56.50
44441;BME280;30146;52.268;20.944;2023-02-28T04:16:16;101909.11;;;-1.94;56.67
44441;BME280;30146;52.268;20.944;2023-02-28T04:19:01;101908.20;;;-1.95;56.61
44441;BME280;30146;52.268;20.944;2023-02-28T04:21:31;101913.21;;;-1.95;56.64
44441;BME280;30146;52.268;20.944;2023-02-28T04:24:00;101910.73;;;-1.95;56.61
44441;BME280;30146;52.268;20.944;2023-02-28T04:26:30;101911.37;;;-1.96;56.81
44441;BME280;30146;52.268;20.944;2023-02-28T04:28:59;101910.56;;;-1.95;57.00
44441;BME280;30146;52.268;20.944;2023-02-28T04:31:28;101912.13;;;-1.94;56.94
44441;BME280;30146;52.268;20.944;2023-02-28T04:33:57;101907.08;;;-1.95;56.78
44441;BME280;30146;52.268;20.944;2023-02-28T04:36:25;101908.76;;;-1.94;56.69
44441;BME280;30146;52.268;20.944;2023-02-28T04:38:54;101905.98;;;-1.96;56.82
44441;BME280;30146;52.268;20.944;2023-02-28T04:41:22;101906.58;;;-1.97;56.72
44441;BME280;30146;52.268;20.944;2023-02-28T04:43:52;101908.75;;;-1.97;56.80
44441;BME280;30146;52.268;20.944;2023-02-28T04:46:20;101911.33;;;-1.98;56.75
44441;BME280;30146;52.268;20.944;2023-02-28T04:48:48;101912.23;;;-2.00;56.88
44441;BME280;30146;52.268;20.944;2023-02-28T04:51:18;101912.36;;;-2.00;56.86
44441;BME280;30146;52.268;20.944;2023-02-28T04:53:47;101912.50;;;-2.01;56.93
44441;BME280;30146;52.268;20.944;2023-02-28T04:56:17;101919.79;;;-2.02;56.71
44441;BME280;30146;52.268;20.944;2023-02-28T04:58:45;101920.02;;;-2.06;56.56
44441;BME280;30146;52.268;20.944;2023-02-28T05:01:19;101921.36;;;-2.09;56.90
44441;BME280;30146;52.268;20.944;2023-02-28T05:03:48;101921.38;;;-2.08;56.93
44441;BME280;30146;52.268;20.944;2023-02-28T05:06:18;101918.91;;;-2.08;57.02
44441;BME280;30146;52.268;20.944;2023-02-28T05:08:46;101917.66;;;-2.09;57.19
44441;BME280;30146;52.268;20.944;2023-02-28T05:11:17;101922.52;;;-2.09;56.79
44441;BME280;30146;52.268;20.944;2023-02-28T05:13:48;101929.44;;;-2.11;56.90
44441;BME280;30146;52.268;20.944;2023-02-28T05:16:17;101933.98;;;-2.10;57.21
44441;BME280;30146;52.268;20.944;2023-02-28T05:18:46;101938.14;;;-2.11;57.45
44441;BME280;30146;52.268;20.944;2023-02-28T05:21:24;101945.02;;;-2.08;57.20
44441;BME280;30146;52.268;20.944;2023-02-28T05:23:53;101948.23;;;-2.08;57.31
44441;BME280;30146;52.268;20.944;2023-02-28T05:26:25;101951.14;;;-2.07;57.21
44441;BME280;30146;52.268;20.944;2023-02-28T05:28:54;101952.40;;;-2.05;57.41
44441;BME280;30146;52.268;20.944;2023-02-28T05:31:23;101954.66;;;-2.02;57.31
44441;BME280;30146;52.268;20.944;2023-02-28T05:33:52;101956.58;;;-1.99;57.40
44441;BME280;30146;52.268;20.944;2023-02-28T05:36:21;101958.92;;;-1.93;57.53
44441;BME280;30146;52.268;20.944;2023-02-28T05:38:49;101963.11;;;-1.88;57.70
44441;BME280;30146;52.268;20.944;2023-02-28T05:41:19;101962.40;;;-1.84;57.42
44441;BME280;30146;52.268;20.944;2023-02-28T05:43:48;101962.08;;;-1.79;57.64
44441;BME280;30146;52.268;20.944;2023-02-28T05:46:16;101964.57;;;-1.71;57.84
44441;BME280;30146;52.268;20.944;2023-02-28T05:48:46;101966.75;;;-1.66;57.81
44441;BME280;30146;52.268;20.944;2023-02-28T05:51:15;101969.40;;;-1.59;57.39
44441;BME280;30146;52.268;20.944;2023-02-28T05:53:44;101974.04;;;-1.52;57.89
44441;BME280;30146;52.268;20.944;2023-02-28T05:56:12;101973.77;;;-1.46;57.89
44441;BME280;30146;52.268;20.944;2023-02-28T05:58:51;101976.73;;;-1.40;57.62
44441;BME280;30146;52.268;20.944;2023-02-28T06:01:32;101980.09;;;-1.31;57.69
44441;BME280;30146;52.268;20.944;2023-02-28T06:04:01;101981.73;;;-1.22;57.51
44441;BME280;30146;52.268;20.944;2023-02-28T06:06:33;101979.96;;;-1.13;57.61
44441;BME280;30146;52.268;20.944;2023-02-28T06:09:04;101981.61;;;-0.97;57.60
44441;BME280;30146;52.268;20.944;2023-02-28T06:11:33;101978.20;;;-0.58;57.99
44441;BME280;30146;52.268;20.944;2023-02-28T06:14:01;101981.44;;;-0.02;58.39
44441;BME280;30146;52.268;20.944;2023-02-28T06:16:32;101979.09;;;0.62;58.26
44441;BME280;30146;52.268;20.944;2023-02-28T06:19:02;101980.18;;;1.33;58.07
44441;BME280;30146;52.268;20.944;2023-02-28T06:21:31;101982.71;;;2.10;57.94
44441;BME280;30146;52.268;20.944;2023-02-28T06:24:00;101983.70;;;2.87;57.34
44441;BME280;30146;52.268;20.944;2023-02-28T06:26:28;101976.07;;;3.64;56.66
44441;BME280;30146;52.268;20.944;2023-02-28T06:28:57;101975.47;;;4.47;56.95
44441;BME280;30146;52.268;20.944;2023-02-28T06:31:25;101973.94;;;5.37;56.65
44441;BME280;30146;52.268;20.944;2023-02-28T06:33:53;101966.48;;;6.31;56.67
44441;BME280;30146;52.268;20.944;2023-02-28T06:36:21;101959.17;;;7.27;56.15
44441;BME280;30146;52.268;20.944;2023-02-28T06:38:49;101958.23;;;8.20;55.37
44441;BME280;30146;52.268;20.944;2023-02-28T06:41:22;101951.58;;;9.11;54.21
44441;BME280;30146;52.268;20.944;2023-02-28T06:43:53;101949.79;;;9.99;53.00
44441;BME280;30146;52.268;20.944;2023-02-28T06:46:28;101941.33;;;10.83;51.80
44441;BME280;30146;52.268;20.944;2023-02-28T06:48:57;101934.75;;;11.67;50.78
44441;BME280;30146;52.268;20.944;2023-02-28T06:51:25;101931.91;;;12.42;49.22
44441;BME280;30146;52.268;20.944;2023-02-28T06:53:54;101927.99;;;13.18;48.05
44441;BME280;30146;52.268;20.944;2023-02-28T06:56:22;101923.10;;;13.87;46.88
44441;BME280;30146;52.268;20.944;2023-02-28T06:58:51;101916.98;;;14.55;45.81
44441;BME280;30146;52.268;20.944;2023-02-28T07:01:20;101914.14;;;15.06;44.16
44441;BME280;30146;52.268;20.944;2023-02-28T07:03:50;101911.03;;;15.53;43.41
44441;BME280;30146;52.268;20.944;2023-02-28T07:06:20;101911.80;;;16.05;42.89
44441;BME280;30146;52.268;20.944;2023-02-28T07:08:50;101911.48;;;16.64;42.29
44441;BME280;30146;52.268;20.944;2023-02-28T07:11:19;101913.48;;;17.07;40.84
44441;BME280;30146;52.268;20.944;2023-02-28T07:13:49;101912.98;;;17.34;39.98
44441;BME280;30146;52.268;20.944;2023-02-28T07:16:18;101913.59;;;17.67;39.56
44441;BME280;30146;52.268;20.944;2023-02-28T07:18:48;101913.37;;;18.08;39.18
44441;BME280;30146;52.268;20.944;2023-02-28T07:21:16;101908.58;;;18.47;38.41
44441;BME280;30146;52.268;20.944;2023-02-28T07:23:45;101907.38;;;18.76;37.68
44441;BME280;30146;52.268;20.944;2023-02-28T07:26:14;101905.11;;;19.13;37.19
44441;BME280;30146;52.268;20.944;2023-02-28T07:28:44;101905.09;;;19.47;36.58
44441;BME280;30146;52.268;20.944;2023-02-28T07:31:13;101906.49;;;19.71;35.91
44441;BME280;30146;52.268;20.944;2023-02-28T07:33:42;101904.50;;;19.90;35.09
44441;BME280;30146;52.268;20.944;2023-02-28T07:36:12;101896.48;;;20.00;34.49
44441;BME280;30146;52.268;20.944;2023-02-28T07:38:42;101904.81;;;20.14;33.93
44441;BME280;30146;52.268;20.944;2023-02-28T07:41:15;101902.80;;;20.32;33.76
44441;BME280;30146;52.268;20.944;2023-02-28T07:43:44;101899.20;;;20.57;33.39
44441;BME280;30146;52.268;20.944;2023-02-28T07:46:13;101898.77;;;20.80;33.14
44441;BME280;30146;52.268;20.944;2023-02-28T07:48:43;101899.98;;;21.18;33.12
44441;BME280;30146;52.268;20.944;2023-02-28T07:51:12;101899.70;;;21.46;32.20
44441;BME280;30146;52.268;20.944;2023-02-28T07:53:41;101900.45;;;21.62;31.42
44441;BME280;30146;52.268;20.944;2023-02-28T07:56:09;101901.35;;;21.77;31.02
44441;BME280;30146;52.268;20.944;2023-02-28T07:58:38;101906.59;;;21.83;30.12
44441;BME280;30146;52.268;20.944;2023-02-28T08:01:07;101906.78;;;21.87;29.77
44441;BME280;30146;52.268;20.944;2023-02-28T08:03:37;101907.18;;;22.12;29.83
44441;BME280;30146;52.268;20.944;2023-02-28T08:06:07;101905.70;;;22.42;29.48
44441;BME280;30146;52.268;20.944;2023-02-28T08:08:36;101907.97;;;22.62;28.92
44441;BME280;30146;52.268;20.944;2023-02-28T08:11:04;101905.88;;;22.77;28.53
44441;BME280;30146;52.268;20.944;2023-02-28T08:13:33;101909.35;;;22.97;28.25
44441;BME280;30146;52.268;20.944;2023-02-28T08:16:02;101909.16;;;23.13;27.78
44441;BME280;30146;52.268;20.944;2023-02-28T08:18:33;101907.85;;;23.05;27.02
44441;BME280;30146;52.268;20.944;2023-02-28T08:21:07;101905.06;;;22.91;26.79
44441;BME280;30146;52.268;20.944;2023-02-28T08:23:35;101903.42;;;22.97;26.76
44441;BME280;30146;52.268;20.944;2023-02-28T08:26:04;101902.02;;;23.12;26.76
44441;BME280;30146;52.268;20.944;2023-02-28T08:28:32;101899.17;;;23.28;26.70
44441;BME280;30146;52.268;20.944;2023-02-28T08:31:00;101902.69;;;23.32;26.49
44441;BME280;30146;52.268;20.944;2023-02-28T08:33:28;101897.92;;;23.23;26.11
44441;BME280;30146;52.268;20.944;2023-02-28T08:35:57;101901.35;;;23.25;26.07
44441;BME280;30146;52.268;20.944;2023-02-28T08:38:25;101902.73;;;23.26;25.73
44441;BME280;30146;52.268;20.944;2023-02-28T08:40:58;101904.10;;;23.27;25.55
44441;BME280;30146;52.268;20.944;2023-02-28T08:43:26;101906.13;;;23.33;25.44
44441;BME280;30146;52.268;20.944;2023-02-28T08:45:55;101904.98;;;23.35;25.15
44441;BME280;30146;52.268;20.944;2023-02-28T08:48:26;101907.17;;;23.46;25.55
44441;BME280;30146;52.268;20.944;2023-02-28T08:51:02;101903.69;;;23.69;25.56
44441;BME280;30146;52.268;20.944;2023-02-28T08:53:36;101908.41;;;24.00;25.53
44441;BME280;30146;52.268;20.944;2023-02-28T08:56:06;101904.85;;;24.35;25.80
44441;BME280;30146;52.268;20.944;2023-02-28T08:58:36;101902.73;;;24.64;25.33
44441;BME280;30146;52.268;20.944;2023-02-28T09:01:10;101908.73;;;24.79;24.80
44441;BME280;30146;52.268;20.944;2023-02-28T09:03:39;101906.48;;;24.90;24.46
44441;BME280;30146;52.268;20.944;2023-02-28T09:06:09;101904.90;;;25.02;24.09
44441;BME280;30146;52.268;20.944;2023-02-28T09:08:38;101907.56;;;25.17;24.15
44441;BME280;30146;52.268;20.944;2023-02-28T09:13:55;101917.83;;;25.53;23.74
44441;BME280;30146;52.268;20.944;2023-02-28T09:16:23;101922.46;;;25.73;23.65
44441;BME280;30146;52.268;20.944;2023-02-28T09:18:51;101919.90;;;25.75;23.44
44441;BME280;30146;52.268;20.944;2023-02-28T09:21:19;101920.59;;;25.83;23.34
44441;BME280;30146;52.268;20.944;2023-02-28T09:23:49;101920.99;;;25.74;23.18
44441;BME280;30146;52.268;20.944;2023-02-28T09:26:19;101918.62;;;25.62;22.98
44441;BME280;30146;52.268;20.944;2023-02-28T09:28:48;101921.74;;;25.48;23.03
44441;BME280;30146;52.268;20.944;2023-02-28T09:31:18;101922.77;;;25.17;23.28
44441;BME280;30146;52.268;20.944;2023-02-28T09:33:48;101916.94;;;24.67;23.34
44441;BME280;30146;52.268;20.944;2023-02-28T09:36:17;101914.41;;;23.98;23.28
44441;BME280;30146;52.268;20.944;2023-02-28T09:38:45;101911.30;;;23.30;23.64
44441;BME280;30146;52.268;20.944;2023-02-28T09:41:20;101911.90;;;22.70;23.96
44441;BME280;30146;52.268;20.944;2023-02-28T09:43:51;101914.92;;;22.21;24.39
44441;BME280;30146;52.268;20.944;2023-02-28T09:46:28;101915.81;;;21.71;24.40
44441;BME280;30146;52.268;20.944;2023-02-28T09:49:01;101918.68;;;21.21;24.66
44441;BME280;30146;52.268;20.944;2023-02-28T09:51:45;101914.74;;;20.74;24.79
44441;BME280;30146;52.268;20.944;2023-02-28T09:54:17;101922.65;;;20.30;24.88
44441;BME280;30146;52.268;20.944;2023-02-28T09:56:50;101919.52;;;19.78;24.82
44441;BME280;30146;52.268;20.944;2023-02-28T09:59:30;101919.40;;;19.26;24.74
44441;BME280;30146;52.268;20.944;2023-02-28T10:02:08;101918.51;;;18.72;25.05
44441;BME280;30146;52.268;20.944;2023-02-28T10:04:50;101922.89;;;18.19;25.13
44441;BME280;30146;52.268;20.944;2023-02-28T10:07:42;101929.23;;;17.74;25.51
44441;BME280;30146;52.268;20.944;2023-02-28T10:10:21;101930.95;;;17.34;25.86
44441;BME280;30146;52.268;20.944;2023-02-28T10:12:53;101928.88;;;17.05;26.19
44441;BME280;30146;52.268;20.944;2023-02-28T10:15:25;101929.27;;;16.83;26.41
44441;BME280;30146;52.268;20.944;2023-02-28T10:17:58;101926.38;;;16.58;26.33
44441;BME280;30146;52.268;20.944;2023-02-28T10:20:38;101926.41;;;16.34;26.45
44441;BME280;30146;52.268;20.944;2023-02-28T10:23:13;101926.44;;;16.09;26.48
44441;BME280;30146;52.268;20.944;2023-02-28T10:25:45;101919.23;;;15.71;26.22
44441;BME280;30146;52.268;20.944;2023-02-28T10:28:16;101923.69;;;15.39;26.58
44441;BME280;30146;52.268;20.944;2023-02-28T10:30:48;101919.83;;;15.11;26.81
44441;BME280;30146;52.268;20.944;2023-02-28T10:33:23;101919.70;;;14.91;27.13
44441;BME280;30146;52.268;20.944;2023-02-28T10:35:54;101920.95;;;14.72;27.26
44441;BME280;30146;52.268;20.944;2023-02-28T10:38:28;101923.34;;;14.43;27.06
44441;BME280;30146;52.268;20.944;2023-02-28T10:41:05;101921.09;;;14.21;27.44
44441;BME280;30146;52.268;20.944;2023-02-28T10:43:35;101922.96;;;14.04;27.71
44441;BME280;30146;52.268;20.944;2023-02-28T10:46:09;101922.95;;;13.91;27.71
44441;BME280;30146;52.268;20.944;2023-02-28T10:48:45;101917.25;;;13.78;27.99
44441;BME280;30146;52.268;20.944;2023-02-28T10:51:19;101915.33;;;13.68;28.10
44441;BME280;30146;52.268;20.944;2023-02-28T10:53:51;101911.34;;;13.55;27.95
44441;BME280;30146;52.268;20.944;2023-02-28T10:56:32;101908.00;;;13.35;28.06
44441;BME280;30146;52.268;20.944;2023-02-28T10:59:03;101906.48;;;13.11;28.03
44441;BME280;30146;52.268;20.944;2023-02-28T11:01:39;101904.11;;;12.85;28.16
44441;BME280;30146;52.268;20.944;2023-02-28T11:04:19;101906.17;;;12.61;28.35
44441;BME280;30146;52.268;20.944;2023-02-28T11:07:02;101901.23;;;12.40;28.60
44441;BME280;30146;52.268;20.944;2023-02-28T11:09:33;101900.73;;;12.23;28.70
44441;BME280;30146;52.268;20.944;2023-02-28T11:12:03;101894.69;;;11.99;28.76
44441;BME280;30146;52.268;20.944;2023-02-28T11:14:35;101892.36;;;11.75;28.76
44441;BME280;30146;52.268;20.944;2023-02-28T11:17:18;101885.27;;;11.53;29.14
44441;BME280;30146;52.268;20.944;2023-02-28T11:19:50;101878.89;;;11.35;29.19
44441;BME280;30146;52.268;20.944;2023-02-28T11:22:22;101879.58;;;11.21;29.53
44441;BME280;30146;52.268;20.944;2023-02-28T11:24:52;101875.20;;;11.12;29.87
44441;BME280;30146;52.268;20.944;2023-02-28T11:27:45;101871.13;;;11.01;29.80
44441;BME280;30146;52.268;20.944;2023-02-28T11:30:33;101867.65;;;10.86;29.90
44441;BME280;30146;52.268;20.944;2023-02-28T11:33:20;101868.84;;;10.73;30.15
44441;BME280;30146;52.268;20.944;2023-02-28T11:35:51;101870.39;;;10.62;30.56
44441;BME280;30146;52.268;20.944;2023-02-28T11:38:20;101864.06;;;10.51;30.26
44441;BME280;30146;52.268;20.944;2023-02-28T11:40:56;101863.16;;;10.37;30.57
44441;BME280;30146;52.268;20.944;2023-02-28T11:43:40;101858.17;;;10.26;30.78
44441;BME280;30146;52.268;20.944;2023-02-28T11:46:19;101854.56;;;10.13;31.03
44441;BME280;30146;52.268;20.944;2023-02-28T11:48:57;101855.93;;;10.04;31.22
44441;BME280;30146;52.268;20.944;2023-02-28T11:51:32;101853.81;;;9.90;31.13
44441;BME280;30146;52.268;20.944;2023-02-28T11:54:21;101853.54;;;9.74;31.02
44441;BME280;30146;52.268;20.944;2023-02-28T11:56:55;101853.27;;;9.51;30.88
44441;BME280;30146;52.268;20.944;2023-02-28T11:59:47;101852.55;;;9.32;31.20
44441;BME280;30146;52.268;20.944;2023-02-28T12:02:25;101843.65;;;9.14;31.43
44441;BME280;30146;52.268;20.944;2023-02-28T12:05:11;101842.02;;;9.00;31.73
44441;BME280;30146;52.268;20.944;2023-02-28T12:07:49;101843.69;;;8.82;31.67
44441;BME280;30146;52.268;20.944;2023-02-28T12:10:22;101843.55;;;8.69;31.82
44441;BME280;30146;52.268;20.944;2023-02-28T12:13:01;101842.27;;;8.57;32.00
44441;BME280;30146;52.268;20.944;2023-02-28T12:18:47;101838.77;;;8.25;32.25
44441;BME280;30146;52.268;20.944;2023-02-28T12:21:29;101834.83;;;8.17;32.68
44441;BME280;30146;52.268;20.944;2023-02-28T12:24:14;101832.90;;;8.08;32.88
44441;BME280;30146;52.268;20.944;2023-02-28T12:26:47;101831.37;;;8.01;33.08
44441;BME280;30146;52.268;20.944;2023-02-28T12:29:21;101830.05;;;7.96;33.35
44441;BME280;30146;52.268;20.944;2023-02-28T12:31:54;101826.33;;;7.90;33.34
44441;BME280;30146;52.268;20.944;2023-02-28T12:34:27;101825.20;;;7.86;33.41
44441;BME280;30146;52.268;20.944;2023-02-28T12:37:03;101822.50;;;7.80;33.68
44441;BME280;30146;52.268;20.944;2023-02-28T12:39:37;101818.71;;;7.73;33.63
44441;BME280;30146;52.268;20.944;2023-02-28T12:42:22;101816.27;;;7.63;33.74
44441;BME280;30146;52.268;20.944;2023-02-28T12:44:56;101813.91;;;7.57;33.96
44441;BME280;30146;52.268;20.944;2023-02-28T12:47:26;101806.29;;;7.52;33.95
44441;BME280;30146;52.268;20.944;2023-02-28T12:49:58;101807.52;;;7.47;34.15
44441;BME280;30146;52.268;20.944;2023-02-28T12:52:34;101808.31;;;7.45;34.22
44441;BME280;30146;52.268;20.944;2023-02-28T12:55:13;101811.23;;;7.40;34.24
44441;BME280;30146;52.268;20.944;2023-02-28T12:57:48;101808.21;;;7.35;34.58
44441;BME280;30146;52.268;20.944;2023-02-28T13:00:22;101808.28;;;7.32;34.57
44441;BME280;30146;52.268;20.944;2023-02-28T13:03:15;101805.50;;;7.23;34.50
44441;BME280;30146;52.268;20.944;2023-02-28T13:06:21;101806.74;;;7.13;34.63
44441;BME280;30146;52.268;20.944;2023-02-28T13:09:05;101808.20;;;7.05;34.66
44441;BME280;30146;52.268;20.944;2023-02-28T13:11:41;101803.34;;;6.95;34.76
44441;BME280;30146;52.268;20.944;2023-02-28T13:14:28;101797.09;;;6.84;34.91